createdAt,value
2022-09-10T00:02:03.043Z,19.92
2022-09-10T00:04:30.528Z,19.94
2022-09-10T00:06:57.191Z,19.67
2022-09-10T00:09:24.027Z,19.34
2022-09-10T00:11:50.643Z,19.49
2022-09-10T00:14:21.101Z,19.54
2022-09-10T00:16:48.573Z,19.63
2022-09-10T00:19:15.936Z,19.69
2022-09-10T00:21:44.381Z,19.62
2022-09-10T00:24:11.198Z,19.80
2022-09-10T00:26:39.624Z,19.72
2022-09-10T00:29:11.855Z,19.82
2022-09-10T00:31:38.844Z,19.96
2022-09-10T00:34:06.735Z,19.89
2022-09-10T00:36:36.977Z,19.91
2022-09-10T00:39:07.843Z,19.88
2022-09-10T00:41:36.725Z,19.75
2022-09-10T00:44:08.527Z,19.79
2022-09-10T00:46:48.339Z,19.84
2022-09-10T00:49:21.431Z,19.64
2022-09-10T00:51:51.854Z,19.69
2022-09-10T00:54:22.031Z,19.69
2022-09-10T00:56:49.774Z,19.54
2022-09-10T00:59:20.323Z,19.49
2022-09-10T01:01:49.305Z,19.37
2022-09-10T01:04:16.178Z,19.40
2022-09-10T01:06:45.781Z,19.47
2022-09-10T01:09:14.238Z,19.39
2022-09-10T01:11:46.582Z,19.38
2022-09-10T01:14:28.305Z,19.48
2022-09-10T01:17:00.416Z,19.38
2022-09-10T01:19:32.936Z,19.44
2022-09-10T01:22:15.979Z,19.33
2022-09-10T01:25:03.835Z,19.32
2022-09-10T01:27:38.229Z,19.24
2022-09-10T01:30:35.128Z,19.22
2022-09-10T01:33:12.458Z,19.33
2022-09-10T01:35:48.236Z,19.40
2022-09-10T01:38:20.762Z,19.40
2022-09-10T01:40:47.959Z,19.45
2022-09-10T01:43:14.948Z,19.36
2022-09-10T01:46:19.276Z,19.48
2022-09-10T01:49:22.170Z,19.47
2022-09-10T01:52:33.654Z,19.53
2022-09-10T01:55:30.193Z,19.44
2022-09-10T01:58:34.691Z,19.29
2022-09-10T02:01:16.149Z,19.23
2022-09-10T02:03:47.890Z,19.25
2022-09-10T02:06:19.460Z,19.24
2022-09-10T02:08:49.316Z,19.17
2022-09-10T02:11:16.280Z,19.26
2022-09-10T02:13:43.071Z,19.16
2022-09-10T02:16:14.596Z,19.25
2022-09-10T02:18:42.738Z,19.17
2022-09-10T02:21:11.674Z,19.18
2022-09-10T02:23:45.131Z,19.15
2022-09-10T02:26:14.465Z,19.14
2022-09-10T02:28:45.819Z,19.10
2022-09-10T02:31:13.294Z,19.08
2022-09-10T02:33:39.893Z,19.03
2022-09-10T02:36:06.880Z,19.07
2022-09-10T02:38:33.706Z,18.91
2022-09-10T02:41:00.409Z,18.86
2022-09-10T02:43:27.980Z,18.82
2022-09-10T02:45:58.579Z,18.71
2022-09-10T02:48:26.523Z,18.77
2022-09-10T02:50:54.388Z,18.81
2022-09-10T02:53:21.140Z,18.87
2022-09-10T02:55:48.505Z,18.94
2022-09-10T02:58:16.241Z,18.94
2022-09-10T03:00:43.655Z,19.03
2022-09-10T03:03:10.431Z,18.98
2022-09-10T03:05:38.348Z,18.94
2022-09-10T03:08:06.201Z,18.88
2022-09-10T03:10:33.190Z,19.02
2022-09-10T03:13:00.372Z,19.16
2022-09-10T03:15:28.052Z,19.16
2022-09-10T03:17:54.890Z,19.16
2022-09-10T03:20:23.013Z,19.14
2022-09-10T03:22:51.447Z,19.16
2022-09-10T03:25:22.690Z,19.23
2022-09-10T03:27:49.331Z,19.37
2022-09-10T03:30:16.100Z,19.24
2022-09-10T03:32:43.222Z,19.25
2022-09-10T03:35:10.266Z,19.24
2022-09-10T03:37:36.901Z,19.26
2022-09-10T03:40:04.060Z,19.18
2022-09-10T03:42:30.644Z,19.21
2022-09-10T03:44:57.229Z,19.21
2022-09-10T03:47:24.055Z,19.36
2022-09-10T03:49:50.854Z,19.35
2022-09-10T03:52:18.143Z,19.22
2022-09-10T03:54:45.660Z,19.16
2022-09-10T03:57:12.289Z,19.21
2022-09-10T03:59:41.189Z,19.18
2022-09-10T04:02:09.361Z,19.06
2022-09-10T04:04:37.394Z,19.06
2022-09-10T04:07:05.088Z,18.84
2022-09-10T04:09:32.586Z,18.69
2022-09-10T04:12:00.083Z,18.67
2022-09-10T04:14:27.161Z,18.77
2022-09-10T04:16:53.867Z,18.87
2022-09-10T04:19:20.824Z,18.92
2022-09-10T04:21:47.640Z,18.83
2022-09-10T04:24:14.495Z,18.83
2022-09-10T04:26:41.748Z,18.72
2022-09-10T04:29:08.639Z,18.73
2022-09-10T04:31:35.311Z,18.58
2022-09-10T04:34:02.016Z,18.78
2022-09-10T04:36:29.112Z,18.79
2022-09-10T04:38:55.656Z,18.74
2022-09-10T04:41:22.371Z,18.70
2022-09-10T04:43:49.101Z,18.64
2022-09-10T04:46:15.849Z,18.73
2022-09-10T04:48:42.439Z,18.88
2022-09-10T04:51:18.710Z,19.06
2022-09-10T04:53:46.060Z,19.12
2022-09-10T04:56:13.340Z,19.34
2022-09-10T04:58:41.311Z,19.44
2022-09-10T05:01:08.658Z,19.57
2022-09-10T05:03:35.515Z,19.64
2022-09-10T05:06:02.692Z,19.69
2022-09-10T05:08:30.177Z,19.78
2022-09-10T05:10:57.406Z,19.85
2022-09-10T05:13:24.285Z,19.82
2022-09-10T05:15:50.933Z,19.88
2022-09-10T05:18:17.489Z,19.87
2022-09-10T05:20:45.042Z,19.79
2022-09-10T05:23:11.869Z,19.76
2022-09-10T05:25:39.239Z,19.65
2022-09-10T05:28:06.031Z,19.74
2022-09-10T05:30:33.016Z,19.79
2022-09-10T05:33:02.859Z,19.89
2022-09-10T05:35:30.270Z,19.78
2022-09-10T05:37:57.584Z,19.90
2022-09-10T05:40:25.496Z,19.94
2022-09-10T05:42:52.254Z,20.03
2022-09-10T05:45:19.433Z,20.11
2022-09-10T05:47:46.707Z,20.12
2022-09-10T05:50:14.310Z,20.09
2022-09-10T05:52:41.195Z,20.16
2022-09-10T05:55:08.309Z,20.35
2022-09-10T05:57:35.518Z,20.67
2022-09-10T06:00:04.023Z,21.05
2022-09-10T06:02:30.676Z,21.53
2022-09-10T06:04:58.170Z,21.93
2022-09-10T06:07:25.145Z,22.12
2022-09-10T06:09:51.769Z,22.13
2022-09-10T06:12:18.919Z,21.90
2022-09-10T06:14:45.656Z,21.66
2022-09-10T06:17:12.424Z,21.48
2022-09-10T06:19:39.963Z,21.45
2022-09-10T06:22:06.583Z,21.53
2022-09-10T06:24:33.225Z,21.44
2022-09-10T06:26:59.812Z,21.53
2022-09-10T06:29:26.395Z,21.55
2022-09-10T06:31:52.976Z,21.66
2022-09-10T06:34:19.540Z,21.81
2022-09-10T06:36:50.154Z,22.01
2022-09-10T06:39:17.171Z,22.20
2022-09-10T06:41:47.873Z,22.45
2022-09-10T06:44:16.345Z,22.57
2022-09-10T06:49:31.471Z,22.91
2022-09-10T06:51:58.244Z,23.26
2022-09-10T06:54:26.457Z,23.50
2022-09-10T06:56:53.126Z,23.89
2022-09-10T06:59:19.713Z,23.87
2022-09-10T07:01:47.506Z,24.20
2022-09-10T07:04:14.287Z,24.56
2022-09-10T07:06:40.917Z,24.79
2022-09-10T07:09:07.572Z,25.30
2022-09-10T07:11:37.975Z,25.67
2022-09-10T07:14:07.417Z,25.54
2022-09-10T07:16:34.551Z,25.61
2022-09-10T07:19:01.348Z,25.23
2022-09-10T07:21:28.756Z,25.92
2022-09-10T07:23:57.763Z,26.15
2022-09-10T07:26:25.805Z,26.47
2022-09-10T07:28:52.862Z,26.73
2022-09-10T07:31:24.266Z,26.78
2022-09-10T07:33:51.270Z,26.70
2022-09-10T07:36:18.870Z,27.02
2022-09-10T07:38:45.588Z,27.21
2022-09-10T07:41:15.419Z,27.53
2022-09-10T07:43:43.773Z,27.47
2022-09-10T07:46:19.509Z,27.89
2022-09-10T07:48:56.816Z,28.28
2022-09-10T07:51:24.825Z,28.50
2022-09-10T07:53:56.493Z,28.37
2022-09-10T07:56:23.983Z,28.13
2022-09-10T07:58:51.333Z,27.73
2022-09-10T08:01:19.849Z,27.38
2022-09-10T08:03:47.019Z,27.29
2022-09-10T08:06:13.706Z,27.47
2022-09-10T08:08:40.589Z,27.10
2022-09-10T08:11:13.816Z,26.81
2022-09-10T08:13:42.316Z,26.53
2022-09-10T08:16:12.307Z,26.40
2022-09-10T08:18:39.726Z,26.45
2022-09-10T08:21:10.766Z,26.28
2022-09-10T08:23:39.721Z,26.15
2022-09-10T08:26:08.227Z,26.01
2022-09-10T08:28:35.740Z,25.97
2022-09-10T08:31:07.842Z,25.90
2022-09-10T08:33:36.065Z,25.78
2022-09-10T08:36:04.799Z,25.75
2022-09-10T08:38:34.524Z,25.53
2022-09-10T08:41:08.528Z,25.54
2022-09-10T08:43:44.098Z,25.70
2022-09-10T08:46:21.298Z,25.97
2022-09-10T08:48:58.706Z,26.40
2022-09-10T08:51:30.122Z,26.57
2022-09-10T08:54:02.844Z,26.77
2022-09-10T08:56:30.261Z,26.80
2022-09-10T08:59:17.284Z,26.62
2022-09-10T09:02:31.612Z,26.69
2022-09-10T09:05:15.812Z,27.03
2022-09-10T09:07:42.781Z,27.15
2022-09-10T09:10:24.729Z,27.27
2022-09-10T09:13:22.620Z,27.30
2022-09-10T09:15:52.102Z,27.35
2022-09-10T09:18:38.347Z,27.21
2022-09-10T09:21:16.615Z,27.14
2022-09-10T09:24:14.046Z,26.89
2022-09-10T09:26:45.245Z,27.33
2022-09-10T09:29:19.137Z,27.98
2022-09-10T09:31:53.739Z,28.29
2022-09-10T09:34:35.523Z,28.31
2022-09-10T09:37:12.060Z,28.64
2022-09-10T09:40:06.407Z,28.93
2022-09-10T09:43:03.308Z,29.15
2022-09-10T09:45:44.511Z,29.28
2022-09-10T09:48:17.165Z,29.56
2022-09-10T09:50:50.262Z,29.66
2022-09-10T09:53:25.709Z,29.94
2022-09-10T09:56:04.560Z,29.97
2022-09-10T09:58:34.309Z,28.98
2022-09-10T10:01:04.252Z,29.27
2022-09-10T10:03:48.494Z,29.36
2022-09-10T10:06:16.775Z,29.82
2022-09-10T10:08:56.307Z,29.27
2022-09-10T10:11:38.969Z,28.48
2022-09-10T10:14:23.770Z,28.56
2022-09-10T10:16:57.328Z,28.56
2022-09-10T10:19:34.913Z,28.18
2022-09-10T10:22:19.823Z,28.39
2022-09-10T10:24:49.052Z,28.79
2022-09-10T10:27:54.420Z,29.24
2022-09-10T10:30:24.257Z,29.12
2022-09-10T10:32:57.171Z,29.62
2022-09-10T10:35:29.801Z,29.33
2022-09-10T10:38:20.048Z,28.68
2022-09-10T10:41:04.861Z,28.35
2022-09-10T10:43:47.336Z,28.34
2022-09-10T10:46:22.042Z,28.50
2022-09-10T10:48:51.229Z,28.08
2022-09-10T10:51:45.519Z,27.98
2022-09-10T10:54:33.871Z,28.03
2022-09-10T10:57:30.617Z,27.66
2022-09-10T11:00:06.883Z,26.52
2022-09-10T11:02:50.576Z,25.07
2022-09-10T11:05:26.007Z,24.19
2022-09-10T11:07:54.627Z,23.78
2022-09-10T11:10:30.161Z,23.18
2022-09-10T11:13:18.799Z,21.99
2022-09-10T11:15:56.183Z,21.51
2022-09-10T11:18:43.056Z,20.93
2022-09-10T11:21:18.721Z,19.91
2022-09-10T11:23:47.834Z,19.44
2022-09-10T11:26:26.726Z,19.37
2022-09-10T11:29:26.000Z,19.61
2022-09-10T11:31:52.610Z,19.57
2022-09-10T11:34:19.290Z,19.80
2022-09-10T11:36:56.237Z,20.02
2022-09-10T11:39:33.403Z,20.18
2022-09-10T11:42:05.690Z,20.56
2022-09-10T11:44:45.158Z,20.89
2022-09-10T11:47:33.498Z,21.29
2022-09-10T11:50:11.202Z,21.48
2022-09-10T11:52:38.413Z,21.71
2022-09-10T11:55:08.607Z,22.14
2022-09-10T11:58:06.002Z,22.30
2022-09-10T12:00:39.477Z,22.08
2022-09-10T12:03:11.910Z,22.07
2022-09-10T12:05:54.899Z,21.94
2022-09-10T12:08:29.547Z,21.91
2022-09-10T12:11:07.030Z,21.83
2022-09-10T12:13:39.359Z,21.54
2022-09-10T12:16:19.271Z,21.21
2022-09-10T12:18:51.620Z,21.36
2022-09-10T12:21:41.398Z,21.47
2022-09-10T12:24:27.342Z,21.29
2022-09-10T12:26:55.095Z,21.63
2022-09-10T12:29:31.037Z,22.28
2022-09-10T12:32:20.365Z,22.70
2022-09-10T12:34:51.226Z,23.00
2022-09-10T12:37:23.987Z,22.98
2022-09-10T12:40:25.838Z,23.26
2022-09-10T12:42:59.026Z,23.48
2022-09-10T12:46:07.441Z,23.63
2022-09-10T12:48:37.164Z,23.96
2022-09-10T12:51:26.496Z,24.21
2022-09-10T12:54:28.748Z,24.73
2022-09-10T12:57:03.859Z,24.56
2022-09-10T12:59:43.505Z,24.63
2022-09-10T13:02:35.016Z,24.57
2022-09-10T13:05:26.935Z,24.97
2022-09-10T13:08:18.916Z,25.41
2022-09-10T13:10:49.981Z,24.87
2022-09-10T13:13:32.092Z,24.43
2022-09-10T13:15:58.978Z,24.07
2022-09-10T13:18:34.700Z,24.28
2022-09-10T13:23:53.479Z,24.45
2022-09-10T13:26:29.088Z,24.41
2022-09-10T13:28:56.488Z,24.40
2022-09-10T13:31:28.291Z,24.40
2022-09-10T13:34:24.673Z,24.34
2022-09-10T13:37:22.453Z,24.63
2022-09-10T13:40:20.161Z,24.55
2022-09-10T13:43:06.453Z,24.58
2022-09-10T13:45:50.228Z,24.43
2022-09-10T13:48:22.368Z,24.03
2022-09-10T13:51:32.581Z,23.61
2022-09-10T13:54:15.531Z,23.25
2022-09-10T13:56:44.016Z,23.11
2022-09-10T13:59:25.684Z,23.14
2022-09-10T14:01:54.838Z,23.17
2022-09-10T14:04:44.255Z,23.51
2022-09-10T14:07:17.408Z,24.11
2022-09-10T14:09:48.022Z,24.06
2022-09-10T14:12:17.744Z,24.06
2022-09-10T14:14:50.171Z,24.14
2022-09-10T14:17:31.642Z,24.51
2022-09-10T14:20:02.567Z,24.92
2022-09-10T14:22:31.978Z,25.22
2022-09-10T14:25:01.663Z,25.36
2022-09-10T14:27:32.856Z,25.49
2022-09-10T14:30:21.152Z,25.40
2022-09-10T14:32:47.905Z,25.18
2022-09-10T14:35:43.693Z,24.97
2022-09-10T14:38:30.379Z,24.74
2022-09-10T14:41:08.512Z,24.57
2022-09-10T14:43:39.161Z,24.31
2022-09-10T14:46:12.438Z,24.40
2022-09-10T14:48:42.511Z,24.37
2022-09-10T14:51:25.766Z,24.38
2022-09-10T14:53:55.263Z,24.28
2022-09-10T14:56:28.473Z,24.34
2022-09-10T14:59:13.266Z,24.28
2022-09-10T15:01:48.557Z,24.18
2022-09-10T15:04:18.470Z,23.99
2022-09-10T15:06:45.459Z,24.03
2022-09-10T15:09:14.028Z,24.03
2022-09-10T15:12:05.292Z,24.04
2022-09-10T15:14:33.809Z,23.79
2022-09-10T15:17:00.684Z,23.56
2022-09-10T15:19:28.129Z,23.56
2022-09-10T15:21:56.464Z,23.72
2022-09-10T15:24:24.248Z,23.82
2022-09-10T15:26:51.290Z,23.87
2022-09-10T15:29:18.316Z,23.84
2022-09-10T15:31:45.342Z,23.75
2022-09-10T15:34:12.344Z,23.77
2022-09-10T15:36:40.611Z,23.63
2022-09-10T15:39:11.339Z,23.50
2022-09-10T15:41:42.757Z,23.59
2022-09-10T15:44:12.664Z,23.70
2022-09-10T15:46:45.556Z,23.64
2022-09-10T15:49:12.829Z,23.55
2022-09-10T15:51:39.740Z,23.51
2022-09-10T15:54:07.014Z,23.52
2022-09-10T15:56:33.904Z,23.73
2022-09-10T15:59:01.124Z,24.05
2022-09-10T16:01:31.179Z,24.23
2022-09-10T16:04:02.927Z,24.42
2022-09-10T16:06:32.391Z,24.38
2022-09-10T16:09:02.484Z,24.29
2022-09-10T16:11:34.611Z,24.25
2022-09-10T16:14:04.755Z,24.06
2022-09-10T16:16:32.647Z,23.76
2022-09-10T16:19:00.586Z,23.64
2022-09-10T16:21:31.182Z,23.51
2022-09-10T16:24:00.097Z,23.44
2022-09-10T16:26:33.803Z,23.36
2022-09-10T16:29:02.761Z,23.29
2022-09-10T16:31:32.626Z,23.26
2022-09-10T16:34:03.218Z,23.21
2022-09-10T16:36:33.156Z,23.05
2022-09-10T16:39:04.040Z,23.02
2022-09-10T16:41:32.033Z,22.68
2022-09-10T16:44:01.539Z,22.36
2022-09-10T16:46:28.776Z,22.07
2022-09-10T16:48:56.882Z,21.87
2022-09-10T16:51:25.181Z,21.87
2022-09-10T16:54:06.137Z,21.74
2022-09-10T16:56:37.311Z,21.62
2022-09-10T16:59:07.633Z,21.53
2022-09-10T17:01:35.938Z,21.40
2022-09-10T17:04:04.609Z,21.34
2022-09-10T17:06:31.507Z,21.35
2022-09-10T17:09:00.049Z,21.29
2022-09-10T17:11:31.699Z,21.22
2022-09-10T17:14:01.382Z,21.16
2022-09-10T17:16:33.655Z,21.01
2022-09-10T17:19:03.875Z,21.01
2022-09-10T17:21:32.543Z,21.04
2022-09-10T17:24:00.181Z,20.99
2022-09-10T17:26:27.275Z,20.98
2022-09-10T17:29:06.699Z,20.98
2022-09-10T17:31:34.910Z,20.94
2022-09-10T17:34:03.952Z,20.89
2022-09-10T17:36:31.432Z,20.88
2022-09-10T17:38:59.434Z,20.88
2022-09-10T17:41:30.387Z,20.94
2022-09-10T17:43:59.173Z,20.87
2022-09-10T17:46:26.952Z,20.76
2022-09-10T17:48:54.845Z,20.59
2022-09-10T17:51:24.857Z,20.54
2022-09-10T17:53:53.212Z,20.49
2022-09-10T17:56:28.805Z,20.48
2022-09-10T17:59:05.042Z,20.33
2022-09-10T18:01:39.221Z,20.16
2022-09-10T18:04:08.966Z,20.41
2022-09-10T18:06:43.037Z,20.38
2022-09-10T18:09:11.775Z,20.15
2022-09-10T18:11:43.355Z,20.32
2022-09-10T18:14:19.082Z,20.51
2022-09-10T18:16:54.017Z,20.43
2022-09-10T18:19:24.839Z,20.54
2022-09-10T18:21:57.459Z,20.46
2022-09-10T18:24:32.407Z,20.16
2022-09-10T18:27:04.684Z,20.30
2022-09-10T18:29:46.959Z,20.31
2022-09-10T18:32:18.900Z,20.48
2022-09-10T18:34:49.340Z,20.47
2022-09-10T18:37:22.202Z,20.33
2022-09-10T18:39:50.257Z,20.18
2022-09-10T18:42:20.892Z,20.04
2022-09-10T18:44:48.166Z,19.83
2022-09-10T18:47:34.126Z,19.81
2022-09-10T18:50:02.789Z,19.75
2022-09-10T18:52:29.958Z,19.64
2022-09-10T18:54:58.758Z,19.57
2022-09-10T18:57:26.403Z,19.61
2022-09-10T18:59:55.420Z,19.68
2022-09-10T19:02:22.641Z,19.80
2022-09-10T19:05:10.224Z,19.87
2022-09-10T19:07:41.578Z,19.90
2022-09-10T19:10:10.383Z,20.01
2022-09-10T19:12:43.068Z,19.95
2022-09-10T19:15:14.046Z,19.88
2022-09-10T19:17:44.328Z,19.87
2022-09-10T19:20:11.422Z,19.78
2022-09-10T19:22:39.030Z,19.68
2022-09-10T19:25:15.604Z,19.52
2022-09-10T19:27:43.393Z,19.48
2022-09-10T19:30:16.695Z,19.29
2022-09-10T19:32:46.255Z,18.96
2022-09-10T19:35:16.536Z,18.92
2022-09-10T19:37:43.505Z,18.81
2022-09-10T19:40:12.537Z,18.84
2022-09-10T19:42:42.919Z,18.91
2022-09-10T19:45:13.521Z,18.99
2022-09-10T19:47:45.174Z,18.98
2022-09-10T19:50:23.476Z,18.91
2022-09-10T19:52:53.400Z,18.82
2022-09-10T19:55:27.340Z,18.68
2022-09-10T19:57:54.992Z,18.98
2022-09-10T20:00:45.337Z,18.94
2022-09-10T20:03:09.152Z,18.90
2022-09-10T20:05:38.518Z,18.97
2022-09-10T20:08:07.041Z,18.90
2022-09-10T20:10:38.488Z,18.87
2022-09-10T20:13:08.646Z,18.80
2022-09-10T20:15:43.484Z,18.80
2022-09-10T20:18:12.930Z,18.71
2022-09-10T20:20:39.853Z,18.53
2022-09-10T20:23:06.927Z,18.59
2022-09-10T20:25:36.354Z,18.50
2022-09-10T20:28:05.269Z,18.44
2022-09-10T20:30:32.370Z,18.37
2022-09-10T20:33:02.767Z,18.46
2022-09-10T20:35:32.418Z,18.44
2022-09-10T20:38:00.025Z,18.30
2022-09-10T20:40:27.030Z,18.35
2022-09-10T20:42:54.285Z,18.34
2022-09-10T20:45:27.510Z,18.24
2022-09-10T20:47:54.659Z,18.28
2022-09-10T20:50:24.746Z,18.28
2022-09-10T20:52:51.765Z,18.30
2022-09-10T20:55:19.140Z,18.27
2022-09-10T20:57:46.330Z,18.25
2022-09-10T21:00:17.042Z,18.27
2022-09-10T21:02:48.491Z,18.28
2022-09-10T21:05:15.610Z,18.20
2022-09-10T21:07:42.862Z,18.26
2022-09-10T21:10:09.696Z,18.26
2022-09-10T21:12:37.701Z,18.36
2022-09-10T21:15:05.727Z,18.47
2022-09-10T21:17:32.313Z,18.46
2022-09-10T21:19:59.570Z,18.55
2022-09-10T21:22:26.192Z,18.48
2022-09-10T21:24:53.385Z,18.61
2022-09-10T21:27:20.093Z,18.50
2022-09-10T21:29:47.124Z,18.50
2022-09-10T21:32:13.709Z,18.52
2022-09-10T21:34:40.386Z,18.51
2022-09-10T21:37:06.986Z,18.48
2022-09-10T21:39:33.643Z,18.50
2022-09-10T21:42:00.167Z,18.37
2022-09-10T21:44:26.839Z,18.39
2022-09-10T21:46:53.611Z,18.39
2022-09-10T21:49:20.554Z,18.36
2022-09-10T21:51:47.525Z,18.33
2022-09-10T21:54:18.598Z,18.34
2022-09-10T21:56:45.536Z,18.38
2022-09-10T21:59:12.733Z,18.45
2022-09-10T22:01:42.071Z,18.34
2022-09-10T22:04:08.875Z,18.32
2022-09-10T22:06:36.199Z,18.21
2022-09-10T22:09:06.991Z,18.18
2022-09-10T22:11:36.803Z,18.13
2022-09-10T22:14:06.460Z,18.16
2022-09-10T22:16:34.782Z,18.14
2022-09-10T22:19:04.532Z,18.03
2022-09-10T22:21:31.196Z,18.06
2022-09-10T22:23:58.662Z,18.00
2022-09-10T22:26:30.488Z,18.05
2022-09-10T22:29:03.172Z,18.00
2022-09-10T22:31:33.045Z,17.96
2022-09-10T22:34:06.457Z,17.96
2022-09-10T22:36:35.534Z,18.03
2022-09-10T22:39:05.074Z,18.05
2022-09-10T22:41:34.157Z,17.96
2022-09-10T22:44:01.632Z,17.91
2022-09-10T22:46:28.917Z,17.86
2022-09-10T22:48:56.499Z,17.94
2022-09-10T22:51:28.221Z,17.87
2022-09-10T22:53:56.108Z,17.82
2022-09-10T22:56:26.200Z,17.83
2022-09-10T22:58:54.633Z,17.64
2022-09-10T23:01:24.287Z,17.81
2022-09-10T23:03:53.027Z,17.69
2022-09-10T23:06:24.081Z,17.68
2022-09-10T23:08:53.597Z,17.53
2022-09-10T23:11:26.358Z,17.53
2022-09-10T23:13:57.459Z,17.53
2022-09-10T23:16:25.707Z,17.55
2022-09-10T23:18:54.754Z,17.53
2022-09-10T23:21:26.720Z,17.49
2022-09-10T23:23:55.221Z,17.50
2022-09-10T23:26:22.930Z,17.52
2022-09-10T23:28:50.725Z,17.56
2022-09-10T23:31:22.968Z,17.57
2022-09-10T23:34:01.267Z,17.51
2022-09-10T23:36:31.388Z,17.51
2022-09-10T23:39:13.369Z,17.57
2022-09-10T23:41:41.736Z,17.60
2022-09-10T23:44:09.470Z,17.69
2022-09-10T23:46:37.261Z,17.70
2022-09-10T23:49:04.930Z,17.68
2022-09-10T23:51:31.989Z,17.66
2022-09-10T23:53:59.524Z,17.70
2022-09-10T23:56:28.404Z,17.73
2022-09-10T23:58:56.201Z,17.71
